East Elmhurst, NY (11369)

9:56 PM EST on December 24, 2014 (GMT -0500)
Meadow Lake | Change Station
CLOSE
Current Station
Personal Weather Station
Location: New York, NY
Elevation: -10 ft
Nearby Weather Stations
Active Advisory: Dense Fog Advisory Active Notice: Record Report

Elev -10 ft 40.73 °N, 73.84 °W | Updated 55 minutes ago

Overcast
Overcast
52.7 °F
Feels Like 52.7 °F
N
6.3
Wind Variable Wind from South
Gusts 8.9 mph

Today
High -- | Low -- °F
--% Chance of Precip.
Yesterday
High -- | Low -- °F
Precip. -- in
7:17 AM 4:32 PM
Waxing Crescent, 12% visible
Pressure 29.58 in
Visibility 0.5 miles
Clouds Overcast 300 ft
Dew Point 53 °F
Humidity 100%
Rainfall -999.00 in
Snow Depth Not available.
UV 0 out of 12
Pollen .10 out of 12
Air Quality Not available.
Flu Activity Not available.
METAR KLGA 250251Z 17007KT 1/2SM BR OVC003 12/12 A2958 RMK AO2 SFC VIS 2 SLP017 T01170117 56010

More Conditions Fewer Conditions

Pressure 29.58 in
Visibility 0.5 miles
Clouds Overcast 300 ft
Dew Point 53 °F
Humidity 100%
Rainfall -999.00 in
Snow Depth Not available.
UV 0 out of 12
Pollen .10 out of 12
Air Quality Not available.
Flu Activity Not available.
METAR KLGA 250251Z 17007KT 1/2SM BR OVC003 12/12 A2958 RMK AO2 SFC VIS 2 SLP017 T01170117 56010

More Conditions Fewer Conditions

10-Day Weather Forecast

Almanac

Astronomy

Dec. 24, 2014 Rise Set
Actual Time
Civil Twilight
Nautical Twilight
Astronomical Twilight
Moon
Length of Visible Light
Length of Day
Tomorrow will be .
, % of the Moon is Illuminated

Today's Extremes

State Highs State Lows

Community

WunderPhotos

Upload Photos

1,780,215 photos uploaded!

WunderBlogs® & News

Nearby

Air Quality

  Air Quality AQ Index Pollutant
Not available.

Snow Depth

Station Depth Elevation

Earthquake Activity

City Distance Mag. Time & Date
Minimum magnitude displayed is 2.5.

Coastal Water Temperatures

Place Temperature

Nearby Weather Stations